sensor_id;sensor_type;location;lat;lon;timestamp;P1;P2;P0
26720;PMS1003;15950;51.112;6.966;2022-11-11T00:02:35;009;007;
26720;PMS1003;15950;51.112;6.966;2022-11-11T00:05:35;005;003;
26720;PMS1003;15950;51.112;6.966;2022-11-11T00:08:35;005;004;
26720;PMS1003;15950;51.112;6.966;2022-11-11T00:11:36;009;007;
26720;PMS1003;15950;51.112;6.966;2022-11-11T00:14:35;006;004;
26720;PMS1003;15950;51.112;6.966;2022-11-11T00:17:35;007;006;
26720;PMS1003;15950;51.112;6.966;2022-11-11T00:20:35;009;007;
26720;PMS1003;15950;51.112;6.966;2022-11-11T00:23:35;008;007;
26720;PMS1003;15950;51.112;6.966;2022-11-11T00:26:35;006;004;
26720;PMS1003;15950;51.112;6.966;2022-11-11T00:29:35;003;002;
26720;PMS1003;15950;51.112;6.966;2022-11-11T00:32:35;006;005;
26720;PMS1003;15950;51.112;6.966;2022-11-11T00:35:35;010;007;
26720;PMS1003;15950;51.112;6.966;2022-11-11T00:38:35;007;005;
26720;PMS1003;15950;51.112;6.966;2022-11-11T00:41:35;005;003;
26720;PMS1003;15950;51.112;6.966;2022-11-11T00:44:35;005;003;
26720;PMS1003;15950;51.112;6.966;2022-11-11T00:47:35;005;003;
26720;PMS1003;15950;51.112;6.966;2022-11-11T00:50:35;007;007;
26720;PMS1003;15950;51.112;6.966;2022-11-11T00:53:35;007;005;
26720;PMS1003;15950;51.112;6.966;2022-11-11T00:56:35;004;004;
26720;PMS1003;15950;51.112;6.966;2022-11-11T00:59:35;004;003;
26720;PMS1003;15950;51.112;6.966;2022-11-11T01:02:35;007;005;
26720;PMS1003;15950;51.112;6.966;2022-11-11T01:05:38;007;005;
26720;PMS1003;15950;51.112;6.966;2022-11-11T01:08:35;003;002;
26720;PMS1003;15950;51.112;6.966;2022-11-11T01:11:35;006;004;
26720;PMS1003;15950;51.112;6.966;2022-11-11T01:14:35;005;005;
26720;PMS1003;15950;51.112;6.966;2022-11-11T01:17:35;006;004;
26720;PMS1003;15950;51.112;6.966;2022-11-11T01:20:35;007;006;
26720;PMS1003;15950;51.112;6.966;2022-11-11T01:23:36;007;005;
26720;PMS1003;15950;51.112;6.966;2022-11-11T01:26:35;008;007;
26720;PMS1003;15950;51.112;6.966;2022-11-11T01:29:35;005;003;
26720;PMS1003;15950;51.112;6.966;2022-11-11T01:32:35;003;003;
26720;PMS1003;15950;51.112;6.966;2022-11-11T01:35:38;003;002;
26720;PMS1003;15950;51.112;6.966;2022-11-11T01:38:35;005;003;
26720;PMS1003;15950;51.112;6.966;2022-11-11T01:41:35;004;003;
26720;PMS1003;15950;51.112;6.966;2022-11-11T01:44:39;007;005;
26720;PMS1003;15950;51.112;6.966;2022-11-11T01:47:35;003;002;
26720;PMS1003;15950;51.112;6.966;2022-11-11T01:50:35;006;004;
26720;PMS1003;15950;51.112;6.966;2022-11-11T01:53:35;003;002;
26720;PMS1003;15950;51.112;6.966;2022-11-11T01:56:35;002;002;
26720;PMS1003;15950;51.112;6.966;2022-11-11T01:59:35;005;003;
26720;PMS1003;15950;51.112;6.966;2022-11-11T02:02:38;006;004;
26720;PMS1003;15950;51.112;6.966;2022-11-11T02:05:35;005;003;
26720;PMS1003;15950;51.112;6.966;2022-11-11T02:08:35;003;002;
26720;PMS1003;15950;51.112;6.966;2022-11-11T02:11:35;008;006;
26720;PMS1003;15950;51.112;6.966;2022-11-11T02:14:38;005;003;
26720;PMS1003;15950;51.112;6.966;2022-11-11T02:17:35;003;002;
26720;PMS1003;15950;51.112;6.966;2022-11-11T02:20:36;005;003;
26720;PMS1003;15950;51.112;6.966;2022-11-11T02:26:35;006;005;
26720;PMS1003;15950;51.112;6.966;2022-11-11T02:29:35;005;003;
26720;PMS1003;15950;51.112;6.966;2022-11-11T02:32:35;007;005;
26720;PMS1003;15950;51.112;6.966;2022-11-11T02:35:40;005;004;
26720;PMS1003;15950;51.112;6.966;2022-11-11T02:38:35;003;002;
26720;PMS1003;15950;51.112;6.966;2022-11-11T02:41:35;005;005;
26720;PMS1003;15950;51.112;6.966;2022-11-11T02:44:35;006;004;
26720;PMS1003;15950;51.112;6.966;2022-11-11T02:47:35;005;003;
26720;PMS1003;15950;51.112;6.966;2022-11-11T02:50:35;003;002;
26720;PMS1003;15950;51.112;6.966;2022-11-11T02:53:35;006;004;
26720;PMS1003;15950;51.112;6.966;2022-11-11T02:56:35;005;003;
26720;PMS1003;15950;51.112;6.966;2022-11-11T02:59:35;003;002;
26720;PMS1003;15950;51.112;6.966;2022-11-11T03:02:35;005;003;
26720;PMS1003;15950;51.112;6.966;2022-11-11T03:05:35;002;001;
26720;PMS1003;15950;51.112;6.966;2022-11-11T03:08:35;006;004;
26720;PMS1003;15950;51.112;6.966;2022-11-11T03:11:35;003;002;
26720;PMS1003;15950;51.112;6.966;2022-11-11T03:14:35;003;002;
26720;PMS1003;15950;51.112;6.966;2022-11-11T03:17:35;004;003;
26720;PMS1003;15950;51.112;6.966;2022-11-11T03:20:35;007;005;
26720;PMS1003;15950;51.112;6.966;2022-11-11T03:23:35;004;003;
26720;PMS1003;15950;51.112;6.966;2022-11-11T03:26:35;002;001;
26720;PMS1003;15950;51.112;6.966;2022-11-11T03:29:35;006;004;
26720;PMS1003;15950;51.112;6.966;2022-11-11T03:32:35;003;002;
26720;PMS1003;15950;51.112;6.966;2022-11-11T03:35:35;005;003;
26720;PMS1003;15950;51.112;6.966;2022-11-11T03:38:35;003;002;
26720;PMS1003;15950;51.112;6.966;2022-11-11T03:41:35;007;007;
26720;PMS1003;15950;51.112;6.966;2022-11-11T03:44:35;006;004;
26720;PMS1003;15950;51.112;6.966;2022-11-11T03:47:35;003;002;
26720;PMS1003;15950;51.112;6.966;2022-11-11T03:50:35;004;004;
26720;PMS1003;15950;51.112;6.966;2022-11-11T03:53:35;006;004;
26720;PMS1003;15950;51.112;6.966;2022-11-11T03:56:35;003;003;
26720;PMS1003;15950;51.112;6.966;2022-11-11T03:59:35;002;001;
26720;PMS1003;15950;51.112;6.966;2022-11-11T04:02:35;003;002;
26720;PMS1003;15950;51.112;6.966;2022-11-11T04:05:35;003;002;
26720;PMS1003;15950;51.112;6.966;2022-11-11T04:08:35;002;001;
26720;PMS1003;15950;51.112;6.966;2022-11-11T04:11:36;003;002;
26720;PMS1003;15950;51.112;6.966;2022-11-11T04:14:35;005;003;
26720;PMS1003;15950;51.112;6.966;2022-11-11T04:17:35;005;004;
26720;PMS1003;15950;51.112;6.966;2022-11-11T04:20:35;002;002;
26720;PMS1003;15950;51.112;6.966;2022-11-11T04:23:35;003;002;
26720;PMS1003;15950;51.112;6.966;2022-11-11T04:26:35;004;003;
26720;PMS1003;15950;51.112;6.966;2022-11-11T04:29:35;003;002;
26720;PMS1003;15950;51.112;6.966;2022-11-11T04:32:35;004;003;
26720;PMS1003;15950;51.112;6.966;2022-11-11T04:35:35;002;001;
26720;PMS1003;15950;51.112;6.966;2022-11-11T04:38:35;002;001;
26720;PMS1003;15950;51.112;6.966;2022-11-11T04:41:35;005;003;
26720;PMS1003;15950;51.112;6.966;2022-11-11T04:44:35;002;002;
26720;PMS1003;15950;51.112;6.966;2022-11-11T04:47:35;002;001;
26720;PMS1003;15950;51.112;6.966;2022-11-11T04:50:36;002;001;
26720;PMS1003;15950;51.112;6.966;2022-11-11T04:53:35;002;001;
26720;PMS1003;15950;51.112;6.966;2022-11-11T04:56:35;003;002;
26720;PMS1003;15950;51.112;6.966;2022-11-11T04:59:35;003;002;
26720;PMS1003;15950;51.112;6.966;2022-11-11T05:02:35;007;005;
26720;PMS1003;15950;51.112;6.966;2022-11-11T05:05:35;007;005;
26720;PMS1003;15950;51.112;6.966;2022-11-11T05:08:36;004;003;
26720;PMS1003;15950;51.112;6.966;2022-11-11T05:11:35;004;003;
26720;PMS1003;15950;51.112;6.966;2022-11-11T05:14:35;005;003;
26720;PMS1003;15950;51.112;6.966;2022-11-11T05:17:35;005;004;
26720;PMS1003;15950;51.112;6.966;2022-11-11T05:20:35;003;002;
26720;PMS1003;15950;51.112;6.966;2022-11-11T05:23:35;003;002;
26720;PMS1003;15950;51.112;6.966;2022-11-11T05:26:35;003;002;
26720;PMS1003;15950;51.112;6.966;2022-11-11T05:29:35;003;002;
26720;PMS1003;15950;51.112;6.966;2022-11-11T05:32:35;003;002;
26720;PMS1003;15950;51.112;6.966;2022-11-11T05:35:34;002;001;
26720;PMS1003;15950;51.112;6.966;2022-11-11T05:38:34;002;001;
26720;PMS1003;15950;51.112;6.966;2022-11-11T05:41:35;003;002;
26720;PMS1003;15950;51.112;6.966;2022-11-11T05:44:35;003;002;
26720;PMS1003;15950;51.112;6.966;2022-11-11T05:47:34;003;002;
26720;PMS1003;15950;51.112;6.966;2022-11-11T05:50:34;003;002;
26720;PMS1003;15950;51.112;6.966;2022-11-11T05:53:34;002;001;
26720;PMS1003;15950;51.112;6.966;2022-11-11T05:56:34;006;004;
26720;PMS1003;15950;51.112;6.966;2022-11-11T05:59:34;002;001;
26720;PMS1003;15950;51.112;6.966;2022-11-11T06:02:40;002;001;
26720;PMS1003;15950;51.112;6.966;2022-11-11T06:05:35;004;003;
26720;PMS1003;15950;51.112;6.966;2022-11-11T06:08:34;003;002;
26720;PMS1003;15950;51.112;6.966;2022-11-11T06:11:34;002;001;
26720;PMS1003;15950;51.112;6.966;2022-11-11T06:14:34;002;002;
26720;PMS1003;15950;51.112;6.966;2022-11-11T06:17:34;003;002;
26720;PMS1003;15950;51.112;6.966;2022-11-11T06:20:34;006;005;
26720;PMS1003;15950;51.112;6.966;2022-11-11T06:23:34;004;003;
26720;PMS1003;15950;51.112;6.966;2022-11-11T06:26:34;002;002;
26720;PMS1003;15950;51.112;6.966;2022-11-11T06:29:34;007;006;
26720;PMS1003;15950;51.112;6.966;2022-11-11T06:32:34;002;002;
26720;PMS1003;15950;51.112;6.966;2022-11-11T06:35:35;002;001;
26720;PMS1003;15950;51.112;6.966;2022-11-11T06:38:35;003;002;
26720;PMS1003;15950;51.112;6.966;2022-11-11T06:41:34;001;001;
26720;PMS1003;15950;51.112;6.966;2022-11-11T06:44:34;002;001;
26720;PMS1003;15950;51.112;6.966;2022-11-11T06:47:34;003;002;
26720;PMS1003;15950;51.112;6.966;2022-11-11T06:50:35;003;002;
26720;PMS1003;15950;51.112;6.966;2022-11-11T06:53:34;007;005;
26720;PMS1003;15950;51.112;6.966;2022-11-11T06:56:34;003;002;
26720;PMS1003;15950;51.112;6.966;2022-11-11T06:59:34;003;002;
26720;PMS1003;15950;51.112;6.966;2022-11-11T07:02:34;006;005;
26720;PMS1003;15950;51.112;6.966;2022-11-11T07:05:34;003;002;
26720;PMS1003;15950;51.112;6.966;2022-11-11T07:08:34;003;002;
26720;PMS1003;15950;51.112;6.966;2022-11-11T07:11:34;003;002;
26720;PMS1003;15950;51.112;6.966;2022-11-11T07:14:34;004;003;
26720;PMS1003;15950;51.112;6.966;2022-11-11T07:17:34;004;003;
26720;PMS1003;15950;51.112;6.966;2022-11-11T07:20:35;003;002;
26720;PMS1003;15950;51.112;6.966;2022-11-11T07:23:34;003;002;
26720;PMS1003;15950;51.112;6.966;2022-11-11T07:26:34;003;002;
26720;PMS1003;15950;51.112;6.966;2022-11-11T07:29:34;004;003;
26720;PMS1003;15950;51.112;6.966;2022-11-11T07:32:35;003;002;
26720;PMS1003;15950;51.112;6.966;2022-11-11T07:35:34;002;001;
26720;PMS1003;15950;51.112;6.966;2022-11-11T07:38:34;002;001;
26720;PMS1003;15950;51.112;6.966;2022-11-11T07:41:34;002;001;
26720;PMS1003;15950;51.112;6.966;2022-11-11T07:44:34;003;002;
26720;PMS1003;15950;51.112;6.966;2022-11-11T07:47:35;002;002;
26720;PMS1003;15950;51.112;6.966;2022-11-11T07:50:34;002;001;
26720;PMS1003;15950;51.112;6.966;2022-11-11T07:53:34;004;003;
26720;PMS1003;15950;51.112;6.966;2022-11-11T07:56:34;002;001;
26720;PMS1003;15950;51.112;6.966;2022-11-11T07:59:34;003;003;
26720;PMS1003;15950;51.112;6.966;2022-11-11T08:02:34;003;002;
26720;PMS1003;15950;51.112;6.966;2022-11-11T08:05:34;003;002;
26720;PMS1003;15950;51.112;6.966;2022-11-11T08:08:34;003;002;
26720;PMS1003;15950;51.112;6.966;2022-11-11T08:11:34;003;002;
26720;PMS1003;15950;51.112;6.966;2022-11-11T08:14:34;003;002;
26720;PMS1003;15950;51.112;6.966;2022-11-11T08:17:37;006;004;
26720;PMS1003;15950;51.112;6.966;2022-11-11T08:20:34;003;002;
26720;PMS1003;15950;51.112;6.966;2022-11-11T08:23:35;002;001;
26720;PMS1003;15950;51.112;6.966;2022-11-11T08:26:34;002;001;
26720;PMS1003;15950;51.112;6.966;2022-11-11T08:29:34;002;001;
26720;PMS1003;15950;51.112;6.966;2022-11-11T08:32:34;009;006;
26720;PMS1003;15950;51.112;6.966;2022-11-11T08:35:34;004;003;
26720;PMS1003;15950;51.112;6.966;2022-11-11T08:38:34;005;004;
26720;PMS1003;15950;51.112;6.966;2022-11-11T08:41:34;002;001;
26720;PMS1003;15950;51.112;6.966;2022-11-11T08:44:34;003;002;
26720;PMS1003;15950;51.112;6.966;2022-11-11T08:47:35;000;000;
26720;PMS1003;15950;51.112;6.966;2022-11-11T08:50:35;003;002;
26720;PMS1003;15950;51.112;6.966;2022-11-11T08:53:34;003;002;
26720;PMS1003;15950;51.112;6.966;2022-11-11T08:56:34;002;002;
26720;PMS1003;15950;51.112;6.966;2022-11-11T08:59:34;003;002;
26720;PMS1003;15950;51.112;6.966;2022-11-11T09:02:34;003;002;
26720;PMS1003;15950;51.112;6.966;2022-11-11T09:05:36;005;003;
26720;PMS1003;15950;51.112;6.966;2022-11-11T09:08:34;004;003;
26720;PMS1003;15950;51.112;6.966;2022-11-11T09:11:34;007;005;
26720;PMS1003;15950;51.112;6.966;2022-11-11T09:14:34;002;001;
26720;PMS1003;15950;51.112;6.966;2022-11-11T09:17:34;002;001;
26720;PMS1003;15950;51.112;6.966;2022-11-11T09:20:34;005;004;
26720;PMS1003;15950;51.112;6.966;2022-11-11T09:23:34;001;001;
26720;PMS1003;15950;51.112;6.966;2022-11-11T09:26:34;003;002;
26720;PMS1003;15950;51.112;6.966;2022-11-11T09:29:34;003;002;
26720;PMS1003;15950;51.112;6.966;2022-11-11T09:32:34;003;002;
26720;PMS1003;15950;51.112;6.966;2022-11-11T09:35:34;003;002;
26720;PMS1003;15950;51.112;6.966;2022-11-11T09:38:34;005;004;
26720;PMS1003;15950;51.112;6.966;2022-11-11T09:44:41;002;001;
26720;PMS1003;15950;51.112;6.966;2022-11-11T09:47:40;003;002;
26720;PMS1003;15950;51.112;6.966;2022-11-11T09:50:36;000;000;
26720;PMS1003;15950;51.112;6.966;2022-11-11T09:53:35;000;000;
26720;PMS1003;15950;51.112;6.966;2022-11-11T09:56:34;003;002;
26720;PMS1003;15950;51.112;6.966;2022-11-11T09:59:40;000;000;
26720;PMS1003;15950;51.112;6.966;2022-11-11T10:02:38;000;000;
26720;PMS1003;15950;51.112;6.966;2022-11-11T10:05:39;002;001;
26720;PMS1003;15950;51.112;6.966;2022-11-11T10:14:37;003;002;
26720;PMS1003;15950;51.112;6.966;2022-11-11T10:20:36;003;003;
26720;PMS1003;15950;51.112;6.966;2022-11-11T10:23:34;004;003;
26720;PMS1003;15950;51.112;6.966;2022-11-11T10:26:38;002;001;
26720;PMS1003;15950;51.112;6.966;2022-11-11T10:32:34;000;000;
26720;PMS1003;15950;51.112;6.966;2022-11-11T10:35:34;004;004;
26720;PMS1003;15950;51.112;6.966;2022-11-11T10:38:57;002;001;
26720;PMS1003;15950;51.112;6.966;2022-11-11T10:41:52;000;000;
26720;PMS1003;15950;51.112;6.966;2022-11-11T10:44:34;000;000;
26720;PMS1003;15950;51.112;6.966;2022-11-11T10:50:35;002;001;
26720;PMS1003;15950;51.112;6.966;2022-11-11T10:53:40;000;000;
26720;PMS1003;15950;51.112;6.966;2022-11-11T10:56:55;000;000;
26720;PMS1003;15950;51.112;6.966;2022-11-11T10:59:36;002;001;
26720;PMS1003;15950;51.112;6.966;2022-11-11T11:08:36;001;001;
26720;PMS1003;15950;51.112;6.966;2022-11-11T11:11:35;000;000;
26720;PMS1003;15950;51.112;6.966;2022-11-11T11:14:35;000;000;
26720;PMS1003;15950;51.112;6.966;2022-11-11T11:17:35;000;000;
26720;PMS1003;15950;51.112;6.966;2022-11-11T11:20:34;000;000;
26720;PMS1003;15950;51.112;6.966;2022-11-11T11:32:34;002;001;
26720;PMS1003;15950;51.112;6.966;2022-11-11T11:41:38;000;000;
26720;PMS1003;15950;51.112;6.966;2022-11-11T11:44:37;000;000;
26720;PMS1003;15950;51.112;6.966;2022-11-11T11:47:40;000;000;
26720;PMS1003;15950;51.112;6.966;2022-11-11T11:53:37;000;000;
26720;PMS1003;15950;51.112;6.966;2022-11-11T11:56:38;000;000;
26720;PMS1003;15950;51.112;6.966;2022-11-11T12:05:36;001;001;
26720;PMS1003;15950;51.112;6.966;2022-11-11T12:26:36;000;000;
26720;PMS1003;15950;51.112;6.966;2022-11-11T12:29:37;000;000;
26720;PMS1003;15950;51.112;6.966;2022-11-11T12:56:40;000;000;
26720;PMS1003;15950;51.112;6.966;2022-11-11T13:05:41;000;000;
26720;PMS1003;15950;51.112;6.966;2022-11-11T13:17:34;000;000;
26720;PMS1003;15950;51.112;6.966;2022-11-11T13:23:34;000;000;
26720;PMS1003;15950;51.112;6.966;2022-11-11T13:26:38;000;000;
26720;PMS1003;15950;51.112;6.966;2022-11-11T13:38:36;000;000;
26720;PMS1003;15950;51.112;6.966;2022-11-11T13:41:35;000;000;
26720;PMS1003;15950;51.112;6.966;2022-11-11T13:47:37;000;000;
26720;PMS1003;15950;51.112;6.966;2022-11-11T13:50:35;000;000;
26720;PMS1003;15950;51.112;6.966;2022-11-11T13:53:35;000;000;
26720;PMS1003;15950;51.112;6.966;2022-11-11T13:59:36;000;000;
26720;PMS1003;15950;51.112;6.966;2022-11-11T14:02:34;000;000;
26720;PMS1003;15950;51.112;6.966;2022-11-11T14:05:34;000;000;
26720;PMS1003;15950;51.112;6.966;2022-11-11T14:11:34;000;000;
26720;PMS1003;15950;51.112;6.966;2022-11-11T14:17:35;000;000;
26720;PMS1003;15950;51.112;6.966;2022-11-11T14:20:35;000;000;
26720;PMS1003;15950;51.112;6.966;2022-11-11T14:23:35;000;000;
26720;PMS1003;15950;51.112;6.966;2022-11-11T14:26:34;000;000;
26720;PMS1003;15950;51.112;6.966;2022-11-11T14:29:45;000;000;
26720;PMS1003;15950;51.112;6.966;2022-11-11T14:32:40;000;000;
26720;PMS1003;15950;51.112;6.966;2022-11-11T14:47:36;000;000;
26720;PMS1003;15950;51.112;6.966;2022-11-11T14:53:35;000;000;
26720;PMS1003;15950;51.112;6.966;2022-11-11T14:56:34;000;000;
26720;PMS1003;15950;51.112;6.966;2022-11-11T14:59:34;000;000;
26720;PMS1003;15950;51.112;6.966;2022-11-11T15:02:35;003;002;
26720;PMS1003;15950;51.112;6.966;2022-11-11T15:17:38;000;000;
26720;PMS1003;15950;51.112;6.966;2022-11-11T15:20:40;000;000;
26720;PMS1003;15950;51.112;6.966;2022-11-11T15:38:34;000;000;
26720;PMS1003;15950;51.112;6.966;2022-11-11T15:41:35;000;000;
26720;PMS1003;15950;51.112;6.966;2022-11-11T15:44:34;000;000;
26720;PMS1003;15950;51.112;6.966;2022-11-11T15:47:34;000;000;
26720;PMS1003;15950;51.112;6.966;2022-11-11T15:50:34;000;000;
26720;PMS1003;15950;51.112;6.966;2022-11-11T15:53:34;000;000;
26720;PMS1003;15950;51.112;6.966;2022-11-11T15:56:34;000;000;
26720;PMS1003;15950;51.112;6.966;2022-11-11T15:59:34;000;000;
26720;PMS1003;15950;51.112;6.966;2022-11-11T16:02:34;000;000;
26720;PMS1003;15950;51.112;6.966;2022-11-11T16:05:34;001;001;
26720;PMS1003;15950;51.112;6.966;2022-11-11T16:08:34;000;000;
26720;PMS1003;15950;51.112;6.966;2022-11-11T16:11:36;000;000;
26720;PMS1003;15950;51.112;6.966;2022-11-11T16:14:39;000;000;
26720;PMS1003;15950;51.112;6.966;2022-11-11T16:17:36;000;000;
26720;PMS1003;15950;51.112;6.966;2022-11-11T16:20:36;000;000;
26720;PMS1003;15950;51.112;6.966;2022-11-11T16:23:34;000;000;
26720;PMS1003;15950;51.112;6.966;2022-11-11T16:26:34;000;000;
26720;PMS1003;15950;51.112;6.966;2022-11-11T16:29:35;000;000;
26720;PMS1003;15950;51.112;6.966;2022-11-11T16:32:34;000;000;
26720;PMS1003;15950;51.112;6.966;2022-11-11T16:35:35;000;000;
26720;PMS1003;15950;51.112;6.966;2022-11-11T16:38:34;000;000;
26720;PMS1003;15950;51.112;6.966;2022-11-11T16:41:34;000;000;
26720;PMS1003;15950;51.112;6.966;2022-11-11T16:44:35;000;000;
26720;PMS1003;15950;51.112;6.966;2022-11-11T16:47:39;000;000;
26720;PMS1003;15950;51.112;6.966;2022-11-11T16:50:34;002;001;
26720;PMS1003;15950;51.112;6.966;2022-11-11T16:53:35;000;000;
26720;PMS1003;15950;51.112;6.966;2022-11-11T16:56:34;006;005;
26720;PMS1003;15950;51.112;6.966;2022-11-11T16:59:38;000;000;
26720;PMS1003;15950;51.112;6.966;2022-11-11T17:02:34;002;002;
26720;PMS1003;15950;51.112;6.966;2022-11-11T17:08:35;007;006;
26720;PMS1003;15950;51.112;6.966;2022-11-11T17:14:35;006;004;
26720;PMS1003;15950;51.112;6.966;2022-11-11T17:17:34;002;002;
26720;PMS1003;15950;51.112;6.966;2022-11-11T17:20:34;002;001;
26720;PMS1003;15950;51.112;6.966;2022-11-11T17:23:34;002;002;
26720;PMS1003;15950;51.112;6.966;2022-11-11T17:26:34;003;002;
26720;PMS1003;15950;51.112;6.966;2022-11-11T17:29:34;001;001;
26720;PMS1003;15950;51.112;6.966;2022-11-11T17:32:34;002;001;
26720;PMS1003;15950;51.112;6.966;2022-11-11T17:35:34;003;002;
26720;PMS1003;15950;51.112;6.966;2022-11-11T17:38:35;000;000;
26720;PMS1003;15950;51.112;6.966;2022-11-11T17:41:34;004;003;
26720;PMS1003;15950;51.112;6.966;2022-11-11T17:44:34;005;005;
26720;PMS1003;15950;51.112;6.966;2022-11-11T17:47:34;006;004;
26720;PMS1003;15950;51.112;6.966;2022-11-11T17:50:35;003;002;
26720;PMS1003;15950;51.112;6.966;2022-11-11T17:53:35;000;000;
26720;PMS1003;15950;51.112;6.966;2022-11-11T17:56:34;001;001;
26720;PMS1003;15950;51.112;6.966;2022-11-11T17:59:34;005;005;
26720;PMS1003;15950;51.112;6.966;2022-11-11T18:02:34;004;003;
26720;PMS1003;15950;51.112;6.966;2022-11-11T18:05:34;009;006;
26720;PMS1003;15950;51.112;6.966;2022-11-11T18:08:34;008;006;
26720;PMS1003;15950;51.112;6.966;2022-11-11T18:11:34;010;007;
26720;PMS1003;15950;51.112;6.966;2022-11-11T18:14:34;008;006;
26720;PMS1003;15950;51.112;6.966;2022-11-11T18:17:34;006;004;
26720;PMS1003;15950;51.112;6.966;2022-11-11T18:20:34;007;006;
26720;PMS1003;15950;51.112;6.966;2022-11-11T18:23:35;013;011;
26720;PMS1003;15950;51.112;6.966;2022-11-11T18:26:35;008;007;
26720;PMS1003;15950;51.112;6.966;2022-11-11T18:29:34;005;003;
26720;PMS1003;15950;51.112;6.966;2022-11-11T18:32:34;005;003;
26720;PMS1003;15950;51.112;6.966;2022-11-11T18:35:34;000;000;
26720;PMS1003;15950;51.112;6.966;2022-11-11T18:38:34;002;001;
26720;PMS1003;15950;51.112;6.966;2022-11-11T18:41:34;003;002;
26720;PMS1003;15950;51.112;6.966;2022-11-11T18:44:34;002;001;
26720;PMS1003;15950;51.112;6.966;2022-11-11T18:47:34;001;001;
26720;PMS1003;15950;51.112;6.966;2022-11-11T18:50:34;004;003;
26720;PMS1003;15950;51.112;6.966;2022-11-11T18:53:35;005;003;
26720;PMS1003;15950;51.112;6.966;2022-11-11T18:56:35;002;001;
26720;PMS1003;15950;51.112;6.966;2022-11-11T18:59:34;002;001;
26720;PMS1003;15950;51.112;6.966;2022-11-11T19:02:34;005;003;
26720;PMS1003;15950;51.112;6.966;2022-11-11T19:05:34;014;012;
26720;PMS1003;15950;51.112;6.966;2022-11-11T19:08:34;009;006;
26720;PMS1003;15950;51.112;6.966;2022-11-11T19:11:34;012;009;
26720;PMS1003;15950;51.112;6.966;2022-11-11T19:14:34;007;005;
26720;PMS1003;15950;51.112;6.966;2022-11-11T19:17:34;010;008;
26720;PMS1003;15950;51.112;6.966;2022-11-11T19:20:35;007;006;
26720;PMS1003;15950;51.112;6.966;2022-11-11T19:23:34;009;006;
26720;PMS1003;15950;51.112;6.966;2022-11-11T19:26:34;006;005;
26720;PMS1003;15950;51.112;6.966;2022-11-11T19:29:34;006;004;
26720;PMS1003;15950;51.112;6.966;2022-11-11T19:32:34;006;005;
26720;PMS1003;15950;51.112;6.966;2022-11-11T19:35:34;005;004;
26720;PMS1003;15950;51.112;6.966;2022-11-11T19:38:34;006;004;
26720;PMS1003;15950;51.112;6.966;2022-11-11T19:41:34;005;003;
26720;PMS1003;15950;51.112;6.966;2022-11-11T19:44:34;005;004;
26720;PMS1003;15950;51.112;6.966;2022-11-11T19:47:34;005;003;
26720;PMS1003;15950;51.112;6.966;2022-11-11T19:50:34;005;003;
26720;PMS1003;15950;51.112;6.966;2022-11-11T19:53:34;003;002;
26720;PMS1003;15950;51.112;6.966;2022-11-11T19:56:34;002;001;
26720;PMS1003;15950;51.112;6.966;2022-11-11T19:59:34;003;002;
26720;PMS1003;15950;51.112;6.966;2022-11-11T20:02:34;005;003;
26720;PMS1003;15950;51.112;6.966;2022-11-11T20:05:35;005;003;
26720;PMS1003;15950;51.112;6.966;2022-11-11T20:08:34;007;005;
26720;PMS1003;15950;51.112;6.966;2022-11-11T20:11:34;006;004;
26720;PMS1003;15950;51.112;6.966;2022-11-11T20:14:34;005;004;
26720;PMS1003;15950;51.112;6.966;2022-11-11T20:17:34;005;003;
26720;PMS1003;15950;51.112;6.966;2022-11-11T20:20:34;002;001;
26720;PMS1003;15950;51.112;6.966;2022-11-11T20:23:37;003;002;
26720;PMS1003;15950;51.112;6.966;2022-11-11T20:26:34;003;002;
26720;PMS1003;15950;51.112;6.966;2022-11-11T20:29:34;007;005;
26720;PMS1003;15950;51.112;6.966;2022-11-11T20:32:34;005;003;
26720;PMS1003;15950;51.112;6.966;2022-11-11T20:35:34;007;005;
26720;PMS1003;15950;51.112;6.966;2022-11-11T20:38:34;005;004;
26720;PMS1003;15950;51.112;6.966;2022-11-11T20:41:34;007;005;
26720;PMS1003;15950;51.112;6.966;2022-11-11T20:44:34;005;003;
26720;PMS1003;15950;51.112;6.966;2022-11-11T20:47:34;007;005;
26720;PMS1003;15950;51.112;6.966;2022-11-11T20:50:34;004;004;
26720;PMS1003;15950;51.112;6.966;2022-11-11T20:53:34;004;003;
26720;PMS1003;15950;51.112;6.966;2022-11-11T20:56:34;005;003;
26720;PMS1003;15950;51.112;6.966;2022-11-11T20:59:34;007;005;
26720;PMS1003;15950;51.112;6.966;2022-11-11T21:02:34;008;007;
26720;PMS1003;15950;51.112;6.966;2022-11-11T21:05:34;006;004;
26720;PMS1003;15950;51.112;6.966;2022-11-11T21:08:35;005;003;
26720;PMS1003;15950;51.112;6.966;2022-11-11T21:11:34;002;001;
26720;PMS1003;15950;51.112;6.966;2022-11-11T21:14:34;002;001;
26720;PMS1003;15950;51.112;6.966;2022-11-11T21:17:34;005;005;
26720;PMS1003;15950;51.112;6.966;2022-11-11T21:20:34;005;004;
26720;PMS1003;15950;51.112;6.966;2022-11-11T21:23:34;004;003;
26720;PMS1003;15950;51.112;6.966;2022-11-11T21:26:34;004;003;
26720;PMS1003;15950;51.112;6.966;2022-11-11T21:29:34;009;008;
26720;PMS1003;15950;51.112;6.966;2022-11-11T21:32:34;007;005;
26720;PMS1003;15950;51.112;6.966;2022-11-11T21:35:34;005;004;
26720;PMS1003;15950;51.112;6.966;2022-11-11T21:38:34;005;005;
26720;PMS1003;15950;51.112;6.966;2022-11-11T21:41:35;003;002;
26720;PMS1003;15950;51.112;6.966;2022-11-11T21:44:34;002;001;
26720;PMS1003;15950;51.112;6.966;2022-11-11T21:47:34;002;002;
26720;PMS1003;15950;51.112;6.966;2022-11-11T21:50:34;002;001;
26720;PMS1003;15950;51.112;6.966;2022-11-11T21:53:36;003;002;
26720;PMS1003;15950;51.112;6.966;2022-11-11T21:56:35;003;002;
26720;PMS1003;15950;51.112;6.966;2022-11-11T21:59:34;007;005;
26720;PMS1003;15950;51.112;6.966;2022-11-11T22:02:34;005;003;
26720;PMS1003;15950;51.112;6.966;2022-11-11T22:05:34;006;004;
26720;PMS1003;15950;51.112;6.966;2022-11-11T22:08:34;004;003;
26720;PMS1003;15950;51.112;6.966;2022-11-11T22:11:34;002;002;
26720;PMS1003;15950;51.112;6.966;2022-11-11T22:14:34;004;003;
26720;PMS1003;15950;51.112;6.966;2022-11-11T22:17:34;004;003;